Central Illinois Regional Airport at Bloomington-normal Bloomington-normal US
ICAO: KBMI
IATA: BMI
Category: Large
Scheduled Services: Yes

Elevation: 871 ft
TransAlt. 18000 ft.

Airport Communications:
PEORIA APP/DEP:118.05
ASOS:135.35
ATIS:135.35
CTAF:124.6
GND:121.65
KANKAKEE RDO:108.2
BLOOMINGTON TWR:124.6
UNICOM:122.95

KBMI Zoom In..

If you have problems with the map follow the link
https://www.worldairports.se/pages/airport.php?
ICAO=KBMI

Runways:

(A) RW 02 length 8000 ft width 150 ft
ILS 111.90 / hdg 18

(B) RW 11 length 6525 ft width 150 ft
---- / hdg 108

(C) RW 20 length 8000 ft width 150 ft
ILS 111.90 / hdg 198

(D) RW 29 length 6525 ft width 150 ft
ILS 108.30 / hdg 288

Location; KBMI
Day. 22 / Time. 15.56 Zulu
* Altimeter: 30.38
* Temperature: 01° c. 33.8°f.
* Wind from: 070° Speed 11 kn.
Dewpoint: -03° c.
Visibility: 9 Statute Miles.
Clouds: Clear (automated report).

KBMI 221556Z 07011KT 9SM CLR 01/M03 A3038 RMK AO2 SLP297 T00111028


Wind From 070°
Speed 11 kn.

 
 
jpsmedia.com for Web Design worldairports.se 2019   terms of use